<?xml version="1.0" encoding="UTF-8" standalone="no" ?>
<gpx xmlns="http://www.topografix.com/GPX/1/1" xmlns:xsi="http://www.w3.org/2001/XMLSchema-instance" xsi:schemaLocation="http://www.topografix.com/GPX/1/1 http://www.topografix.com/GPX/1/1/gpx.xsd" version="1.1" creator="VisuGPX - https://www.visugpx.com">
  <metadata>
    <name>GRPVannesJ6_J11</name>
    <desc><![CDATA[gnerando idor: 12438601_12438612_12438617_12438628_12438643_12438715]]></desc>
  </metadata>
  <trk>
    <name><![CDATA[GRPvannesJ9_KercohanBizole_17.8km-12438628]]></name>
    <extensions>
      <line xmlns="http://www.topografix.com/GPX/gpx_style/0/2">
        <color>FF00FF</color>
        <width>4</width>
      </line>
    </extensions>
    <trkseg>
      <trkpt lat="47.64398" lon="-2.55691">
        <ele>100</ele>
        <time>2023-10-30T18:01:31Z</time>
      </trkpt>
      <trkpt lat="47.64409" lon="-2.55821">
        <ele>96</ele>
        <time>2023-10-30T18:03:29Z</time>
      </trkpt>
      <trkpt lat="47.64467" lon="-2.55996">
        <ele>94</ele>
        <time>2023-10-30T18:06:24Z</time>
      </trkpt>
      <trkpt lat="47.64499" lon="-2.56166">
        <ele>87</ele>
        <time>2023-10-30T18:09:03Z</time>
      </trkpt>
      <trkpt lat="47.64523" lon="-2.56232">
        <ele>83</ele>
        <time>2023-10-30T18:10:10Z</time>
      </trkpt>
      <trkpt lat="47.64481" lon="-2.56379">
        <ele>70</ele>
        <time>2023-10-30T18:12:34Z</time>
      </trkpt>
      <trkpt lat="47.64461" lon="-2.56423">
        <ele>68</ele>
        <time>2023-10-30T18:13:22Z</time>
      </trkpt>
      <trkpt lat="47.64405" lon="-2.56414">
        <ele>70</ele>
        <time>2023-10-30T18:14:37Z</time>
      </trkpt>
      <trkpt lat="47.64355" lon="-2.56426">
        <ele>68</ele>
        <time>2023-10-30T18:15:44Z</time>
      </trkpt>
      <trkpt lat="47.64349" lon="-2.56486">
        <ele>66</ele>
        <time>2023-10-30T18:16:39Z</time>
      </trkpt>
      <trkpt lat="47.64347" lon="-2.56489">
        <ele>66</ele>
        <time>2023-10-30T18:16:43Z</time>
      </trkpt>
      <trkpt lat="47.64369" lon="-2.56623">
        <ele>62</ele>
        <time>2023-10-30T18:18:47Z</time>
      </trkpt>
      <trkpt lat="47.64323" lon="-2.56687">
        <ele>57</ele>
        <time>2023-10-30T18:20:11Z</time>
      </trkpt>
      <trkpt lat="47.64295" lon="-2.56709">
        <ele>55</ele>
        <time>2023-10-30T18:20:53Z</time>
      </trkpt>
      <trkpt lat="47.64244" lon="-2.56771">
        <ele>53</ele>
        <time>2023-10-30T18:22:21Z</time>
      </trkpt>
      <trkpt lat="47.64235" lon="-2.56793">
        <ele>53</ele>
        <time>2023-10-30T18:22:44Z</time>
      </trkpt>
      <trkpt lat="47.64197" lon="-2.56812">
        <ele>52</ele>
        <time>2023-10-30T18:23:38Z</time>
      </trkpt>
      <trkpt lat="47.6413" lon="-2.5666">
        <ele>55</ele>
        <time>2023-10-30T18:26:21Z</time>
      </trkpt>
      <trkpt lat="47.64015" lon="-2.56741">
        <ele>51</ele>
        <time>2023-10-30T18:29:11Z</time>
      </trkpt>
      <trkpt lat="47.6396" lon="-2.56751">
        <ele>49</ele>
        <time>2023-10-30T18:30:25Z</time>
      </trkpt>
      <trkpt lat="47.63928" lon="-2.56812">
        <ele>49</ele>
        <time>2023-10-30T18:31:34Z</time>
      </trkpt>
      <trkpt lat="47.63936" lon="-2.56864">
        <ele>49</ele>
        <time>2023-10-30T18:32:22Z</time>
      </trkpt>
      <trkpt lat="47.63976" lon="-2.56931">
        <ele>49</ele>
        <time>2023-10-30T18:33:43Z</time>
      </trkpt>
      <trkpt lat="47.63983" lon="-2.56962">
        <ele>48</ele>
        <time>2023-10-30T18:34:12Z</time>
      </trkpt>
      <trkpt lat="47.63975" lon="-2.56977">
        <ele>48</ele>
        <time>2023-10-30T18:34:29Z</time>
      </trkpt>
      <trkpt lat="47.63914" lon="-2.57036">
        <ele>44</ele>
        <time>2023-10-30T18:36:07Z</time>
      </trkpt>
      <trkpt lat="47.63904" lon="-2.5718">
        <ele>44</ele>
        <time>2023-10-30T18:38:17Z</time>
      </trkpt>
      <trkpt lat="47.63882" lon="-2.57197">
        <ele>47</ele>
        <time>2023-10-30T18:38:50Z</time>
      </trkpt>
      <trkpt lat="47.63878" lon="-2.57271">
        <ele>47</ele>
        <time>2023-10-30T18:39:57Z</time>
      </trkpt>
      <trkpt lat="47.63824" lon="-2.57314">
        <ele>54</ele>
        <time>2023-10-30T18:41:18Z</time>
      </trkpt>
      <trkpt lat="47.63782" lon="-2.57341">
        <ele>54</ele>
        <time>2023-10-30T18:42:19Z</time>
      </trkpt>
      <trkpt lat="47.63658" lon="-2.57393">
        <ele>45</ele>
        <time>2023-10-30T18:45:11Z</time>
      </trkpt>
      <trkpt lat="47.63668" lon="-2.57671">
        <ele>32</ele>
        <time>2023-10-30T18:49:22Z</time>
      </trkpt>
      <trkpt lat="47.63663" lon="-2.57772">
        <ele>33</ele>
        <time>2023-10-30T18:50:53Z</time>
      </trkpt>
      <trkpt lat="47.63665" lon="-2.57777">
        <ele>33</ele>
        <time>2023-10-30T18:50:58Z</time>
      </trkpt>
      <trkpt lat="47.63647" lon="-2.57866">
        <ele>31</ele>
        <time>2023-10-30T18:52:22Z</time>
      </trkpt>
      <trkpt lat="47.63562" lon="-2.57916">
        <ele>31</ele>
        <time>2023-10-30T18:54:24Z</time>
      </trkpt>
      <trkpt lat="47.63531" lon="-2.5786">
        <ele>31</ele>
        <time>2023-10-30T18:55:29Z</time>
      </trkpt>
      <trkpt lat="47.63454" lon="-2.57916">
        <ele>32</ele>
        <time>2023-10-30T18:57:23Z</time>
      </trkpt>
      <trkpt lat="47.63346" lon="-2.57941">
        <ele>35</ele>
        <time>2023-10-30T18:59:49Z</time>
      </trkpt>
      <trkpt lat="47.63316" lon="-2.57987">
        <ele>34</ele>
        <time>2023-10-30T19:00:47Z</time>
      </trkpt>
      <trkpt lat="47.63329" lon="-2.58012">
        <ele>33</ele>
        <time>2023-10-30T19:01:15Z</time>
      </trkpt>
      <trkpt lat="47.63318" lon="-2.5808">
        <ele>35</ele>
        <time>2023-10-30T19:02:18Z</time>
      </trkpt>
      <trkpt lat="47.63311" lon="-2.58166">
        <ele>37</ele>
        <time>2023-10-30T19:03:36Z</time>
      </trkpt>
      <trkpt lat="47.63328" lon="-2.58344">
        <ele>33</ele>
        <time>2023-10-30T19:06:17Z</time>
      </trkpt>
      <trkpt lat="47.63309" lon="-2.58449">
        <ele>31</ele>
        <time>2023-10-30T19:07:55Z</time>
      </trkpt>
      <trkpt lat="47.63345" lon="-2.58556">
        <ele>29</ele>
        <time>2023-10-30T19:09:43Z</time>
      </trkpt>
      <trkpt lat="47.63357" lon="-2.58622">
        <ele>30</ele>
        <time>2023-10-30T19:10:44Z</time>
      </trkpt>
      <trkpt lat="47.63349" lon="-2.58731">
        <ele>32</ele>
        <time>2023-10-30T19:12:23Z</time>
      </trkpt>
      <trkpt lat="47.63327" lon="-2.58799">
        <ele>32</ele>
        <time>2023-10-30T19:13:31Z</time>
      </trkpt>
      <trkpt lat="47.63326" lon="-2.58872">
        <ele>33</ele>
        <time>2023-10-30T19:14:36Z</time>
      </trkpt>
      <trkpt lat="47.6331" lon="-2.58973">
        <ele>31</ele>
        <time>2023-10-30T19:16:10Z</time>
      </trkpt>
      <trkpt lat="47.63449" lon="-2.59201">
        <ele>36</ele>
        <time>2023-10-30T19:20:46Z</time>
      </trkpt>
      <trkpt lat="47.63582" lon="-2.59473">
        <ele>32</ele>
        <time>2023-10-30T19:25:48Z</time>
      </trkpt>
      <trkpt lat="47.63667" lon="-2.59673">
        <ele>32</ele>
        <time>2023-10-30T19:29:21Z</time>
      </trkpt>
      <trkpt lat="47.63709" lon="-2.597">
        <ele>30</ele>
        <time>2023-10-30T19:30:22Z</time>
      </trkpt>
      <trkpt lat="47.63734" lon="-2.59784">
        <ele>27</ele>
        <time>2023-10-30T19:31:45Z</time>
      </trkpt>
      <trkpt lat="47.6375" lon="-2.59868">
        <ele>25</ele>
        <time>2023-10-30T19:33:03Z</time>
      </trkpt>
      <trkpt lat="47.63849" lon="-2.60176">
        <ele>37</ele>
        <time>2023-10-30T19:38:10Z</time>
      </trkpt>
      <trkpt lat="47.63942" lon="-2.60112">
        <ele>34</ele>
        <time>2023-10-30T19:40:27Z</time>
      </trkpt>
      <trkpt lat="47.6397" lon="-2.60066">
        <ele>34</ele>
        <time>2023-10-30T19:41:22Z</time>
      </trkpt>
      <trkpt lat="47.63998" lon="-2.59958">
        <ele>31</ele>
        <time>2023-10-30T19:43:06Z</time>
      </trkpt>
      <trkpt lat="47.63997" lon="-2.5984">
        <ele>28</ele>
        <time>2023-10-30T19:44:53Z</time>
      </trkpt>
      <trkpt lat="47.63946" lon="-2.59729">
        <ele>27</ele>
        <time>2023-10-30T19:46:53Z</time>
      </trkpt>
      <trkpt lat="47.63913" lon="-2.5971">
        <ele>27</ele>
        <time>2023-10-30T19:47:41Z</time>
      </trkpt>
      <trkpt lat="47.63921" lon="-2.59625">
        <ele>28</ele>
        <time>2023-10-30T19:48:58Z</time>
      </trkpt>
      <trkpt lat="47.63977" lon="-2.59643">
        <ele>28</ele>
        <time>2023-10-30T19:50:14Z</time>
      </trkpt>
      <trkpt lat="47.63974" lon="-2.59542">
        <ele>29</ele>
        <time>2023-10-30T19:51:45Z</time>
      </trkpt>
      <trkpt lat="47.63994" lon="-2.59505">
        <ele>30</ele>
        <time>2023-10-30T19:52:28Z</time>
      </trkpt>
      <trkpt lat="47.64006" lon="-2.59461">
        <ele>31</ele>
        <time>2023-10-30T19:53:10Z</time>
      </trkpt>
      <trkpt lat="47.64039" lon="-2.59387">
        <ele>33</ele>
        <time>2023-10-30T19:54:30Z</time>
      </trkpt>
      <trkpt lat="47.64088" lon="-2.5933">
        <ele>35</ele>
        <time>2023-10-30T19:55:53Z</time>
      </trkpt>
      <trkpt lat="47.64202" lon="-2.59144">
        <ele>50</ele>
        <time>2023-10-30T19:59:39Z</time>
      </trkpt>
      <trkpt lat="47.64268" lon="-2.58948">
        <ele>53</ele>
        <time>2023-10-30T20:02:56Z</time>
      </trkpt>
      <trkpt lat="47.64344" lon="-2.588">
        <ele>53</ele>
        <time>2023-10-30T20:05:44Z</time>
      </trkpt>
      <trkpt lat="47.64357" lon="-2.58823">
        <ele>54</ele>
        <time>2023-10-30T20:06:11Z</time>
      </trkpt>
      <trkpt lat="47.64371" lon="-2.58874">
        <ele>54</ele>
        <time>2023-10-30T20:07:00Z</time>
      </trkpt>
      <trkpt lat="47.64379" lon="-2.5892">
        <ele>54</ele>
        <time>2023-10-30T20:07:43Z</time>
      </trkpt>
      <trkpt lat="47.64384" lon="-2.58971">
        <ele>54</ele>
        <time>2023-10-30T20:08:29Z</time>
      </trkpt>
      <trkpt lat="47.64397" lon="-2.5903">
        <ele>54</ele>
        <time>2023-10-30T20:09:25Z</time>
      </trkpt>
      <trkpt lat="47.64395" lon="-2.59241">
        <ele>47</ele>
        <time>2023-10-30T20:12:35Z</time>
      </trkpt>
      <trkpt lat="47.64417" lon="-2.59232">
        <ele>48</ele>
        <time>2023-10-30T20:13:05Z</time>
      </trkpt>
      <trkpt lat="47.64476" lon="-2.59221">
        <ele>47</ele>
        <time>2023-10-30T20:14:25Z</time>
      </trkpt>
      <trkpt lat="47.64487" lon="-2.5923">
        <ele>47</ele>
        <time>2023-10-30T20:14:41Z</time>
      </trkpt>
      <trkpt lat="47.64533" lon="-2.59245">
        <ele>45</ele>
        <time>2023-10-30T20:15:44Z</time>
      </trkpt>
      <trkpt lat="47.64555" lon="-2.59283">
        <ele>42</ele>
        <time>2023-10-30T20:16:29Z</time>
      </trkpt>
      <trkpt lat="47.64568" lon="-2.59326">
        <ele>40</ele>
        <time>2023-10-30T20:17:12Z</time>
      </trkpt>
      <trkpt lat="47.64559" lon="-2.59389">
        <ele>39</ele>
        <time>2023-10-30T20:18:10Z</time>
      </trkpt>
      <trkpt lat="47.6457" lon="-2.59407">
        <ele>38</ele>
        <time>2023-10-30T20:18:31Z</time>
      </trkpt>
      <trkpt lat="47.64578" lon="-2.59468">
        <ele>40</ele>
        <time>2023-10-30T20:19:27Z</time>
      </trkpt>
      <trkpt lat="47.64555" lon="-2.59493">
        <ele>42</ele>
        <time>2023-10-30T20:20:05Z</time>
      </trkpt>
      <trkpt lat="47.64578" lon="-2.59629">
        <ele>44</ele>
        <time>2023-10-30T20:22:11Z</time>
      </trkpt>
      <trkpt lat="47.64594" lon="-2.59703">
        <ele>43</ele>
        <time>2023-10-30T20:23:21Z</time>
      </trkpt>
      <trkpt lat="47.64614" lon="-2.59717">
        <ele>43</ele>
        <time>2023-10-30T20:23:51Z</time>
      </trkpt>
      <trkpt lat="47.6469" lon="-2.59663">
        <ele>42</ele>
        <time>2023-10-30T20:25:43Z</time>
      </trkpt>
      <trkpt lat="47.6474" lon="-2.59582">
        <ele>41</ele>
        <time>2023-10-30T20:27:22Z</time>
      </trkpt>
      <trkpt lat="47.64778" lon="-2.59541">
        <ele>42</ele>
        <time>2023-10-30T20:28:25Z</time>
      </trkpt>
      <trkpt lat="47.64807" lon="-2.59469">
        <ele>43</ele>
        <time>2023-10-30T20:29:40Z</time>
      </trkpt>
      <trkpt lat="47.64932" lon="-2.59347">
        <ele>49</ele>
        <time>2023-10-30T20:33:00Z</time>
      </trkpt>
      <trkpt lat="47.64937" lon="-2.59317">
        <ele>50</ele>
        <time>2023-10-30T20:33:28Z</time>
      </trkpt>
      <trkpt lat="47.65018" lon="-2.59253">
        <ele>54</ele>
        <time>2023-10-30T20:35:30Z</time>
      </trkpt>
      <trkpt lat="47.64991" lon="-2.59162">
        <ele>53</ele>
        <time>2023-10-30T20:36:59Z</time>
      </trkpt>
      <trkpt lat="47.6509" lon="-2.59096">
        <ele>58</ele>
        <time>2023-10-30T20:39:24Z</time>
      </trkpt>
      <trkpt lat="47.65185" lon="-2.59294">
        <ele>60</ele>
        <time>2023-10-30T20:43:03Z</time>
      </trkpt>
      <trkpt lat="47.65222" lon="-2.59447">
        <ele>60</ele>
        <time>2023-10-30T20:45:29Z</time>
      </trkpt>
      <trkpt lat="47.65282" lon="-2.59583">
        <ele>60</ele>
        <time>2023-10-30T20:47:55Z</time>
      </trkpt>
      <trkpt lat="47.65307" lon="-2.59568">
        <ele>62</ele>
        <time>2023-10-30T20:48:31Z</time>
      </trkpt>
      <trkpt lat="47.65362" lon="-2.59512">
        <ele>63</ele>
        <time>2023-10-30T20:50:00Z</time>
      </trkpt>
      <trkpt lat="47.65394" lon="-2.59486">
        <ele>64</ele>
        <time>2023-10-30T20:50:49Z</time>
      </trkpt>
      <trkpt lat="47.65443" lon="-2.59426">
        <ele>65</ele>
        <time>2023-10-30T20:52:13Z</time>
      </trkpt>
      <trkpt lat="47.65496" lon="-2.59387">
        <ele>66</ele>
        <time>2023-10-30T20:53:32Z</time>
      </trkpt>
      <trkpt lat="47.65517" lon="-2.59365">
        <ele>68</ele>
        <time>2023-10-30T20:54:07Z</time>
      </trkpt>
      <trkpt lat="47.65641" lon="-2.59289">
        <ele>81</ele>
        <time>2023-10-30T20:57:06Z</time>
      </trkpt>
      <trkpt lat="47.65687" lon="-2.59262">
        <ele>85</ele>
        <time>2023-10-30T20:58:12Z</time>
      </trkpt>
      <trkpt lat="47.65714" lon="-2.59251">
        <ele>86</ele>
        <time>2023-10-30T20:58:49Z</time>
      </trkpt>
      <trkpt lat="47.6575" lon="-2.59228">
        <ele>88</ele>
        <time>2023-10-30T20:59:41Z</time>
      </trkpt>
      <trkpt lat="47.65842" lon="-2.59193">
        <ele>95</ele>
        <time>2023-10-30T21:01:48Z</time>
      </trkpt>
      <trkpt lat="47.6587" lon="-2.59196">
        <ele>96</ele>
        <time>2023-10-30T21:02:26Z</time>
      </trkpt>
      <trkpt lat="47.65889" lon="-2.59184">
        <ele>97</ele>
        <time>2023-10-30T21:02:53Z</time>
      </trkpt>
      <trkpt lat="47.65951" lon="-2.59173">
        <ele>100</ele>
        <time>2023-10-30T21:04:16Z</time>
      </trkpt>
      <trkpt lat="47.65969" lon="-2.59211">
        <ele>98</ele>
        <time>2023-10-30T21:04:58Z</time>
      </trkpt>
      <trkpt lat="47.6597" lon="-2.59245">
        <ele>97</ele>
        <time>2023-10-30T21:05:29Z</time>
      </trkpt>
      <trkpt lat="47.65957" lon="-2.59326">
        <ele>94</ele>
        <time>2023-10-30T21:06:44Z</time>
      </trkpt>
      <trkpt lat="47.6595" lon="-2.59341">
        <ele>93</ele>
        <time>2023-10-30T21:07:00Z</time>
      </trkpt>
      <trkpt lat="47.65945" lon="-2.5937">
        <ele>92</ele>
        <time>2023-10-30T21:07:27Z</time>
      </trkpt>
      <trkpt lat="47.65942" lon="-2.59397">
        <ele>92</ele>
        <time>2023-10-30T21:07:51Z</time>
      </trkpt>
      <trkpt lat="47.65947" lon="-2.59437">
        <ele>90</ele>
        <time>2023-10-30T21:08:28Z</time>
      </trkpt>
      <trkpt lat="47.65926" lon="-2.59443">
        <ele>91</ele>
        <time>2023-10-30T21:08:57Z</time>
      </trkpt>
      <trkpt lat="47.65933" lon="-2.59562">
        <ele>86</ele>
        <time>2023-10-30T21:10:44Z</time>
      </trkpt>
      <trkpt lat="47.65913" lon="-2.59607">
        <ele>84</ele>
        <time>2023-10-30T21:11:32Z</time>
      </trkpt>
      <trkpt lat="47.65874" lon="-2.59644">
        <ele>82</ele>
        <time>2023-10-30T21:12:34Z</time>
      </trkpt>
      <trkpt lat="47.6588" lon="-2.59665">
        <ele>81</ele>
        <time>2023-10-30T21:12:55Z</time>
      </trkpt>
      <trkpt lat="47.65861" lon="-2.59702">
        <ele>80</ele>
        <time>2023-10-30T21:13:37Z</time>
      </trkpt>
      <trkpt lat="47.65872" lon="-2.59746">
        <ele>81</ele>
        <time>2023-10-30T21:14:19Z</time>
      </trkpt>
      <trkpt lat="47.65859" lon="-2.59768">
        <ele>81</ele>
        <time>2023-10-30T21:14:45Z</time>
      </trkpt>
      <trkpt lat="47.65857" lon="-2.5979">
        <ele>81</ele>
        <time>2023-10-30T21:15:05Z</time>
      </trkpt>
      <trkpt lat="47.659" lon="-2.59824">
        <ele>86</ele>
        <time>2023-10-30T21:16:10Z</time>
      </trkpt>
      <trkpt lat="47.65928" lon="-2.59873">
        <ele>90</ele>
        <time>2023-10-30T21:17:08Z</time>
      </trkpt>
      <trkpt lat="47.65969" lon="-2.59967">
        <ele>91</ele>
        <time>2023-10-30T21:18:48Z</time>
      </trkpt>
      <trkpt lat="47.66002" lon="-2.59993">
        <ele>92</ele>
        <time>2023-10-30T21:19:38Z</time>
      </trkpt>
      <trkpt lat="47.66063" lon="-2.59906">
        <ele>96</ele>
        <time>2023-10-30T21:21:31Z</time>
      </trkpt>
      <trkpt lat="47.66136" lon="-2.59871">
        <ele>98</ele>
        <time>2023-10-30T21:23:13Z</time>
      </trkpt>
      <trkpt lat="47.662" lon="-2.59822">
        <ele>96</ele>
        <time>2023-10-30T21:24:50Z</time>
      </trkpt>
      <trkpt lat="47.66257" lon="-2.59827">
        <ele>93</ele>
        <time>2023-10-30T21:26:06Z</time>
      </trkpt>
      <trkpt lat="47.66298" lon="-2.59817">
        <ele>87</ele>
        <time>2023-10-30T21:27:01Z</time>
      </trkpt>
      <trkpt lat="47.66299" lon="-2.59772">
        <ele>88</ele>
        <time>2023-10-30T21:27:42Z</time>
      </trkpt>
      <trkpt lat="47.6629" lon="-2.59729">
        <ele>89</ele>
        <time>2023-10-30T21:28:22Z</time>
      </trkpt>
      <trkpt lat="47.6627" lon="-2.59672">
        <ele>90</ele>
        <time>2023-10-30T21:29:20Z</time>
      </trkpt>
      <trkpt lat="47.6624" lon="-2.59693">
        <ele>91</ele>
        <time>2023-10-30T21:30:04Z</time>
      </trkpt>
      <trkpt lat="47.66228" lon="-2.59556">
        <ele>91</ele>
        <time>2023-10-30T21:32:08Z</time>
      </trkpt>
      <trkpt lat="47.66306" lon="-2.59514">
        <ele>93</ele>
        <time>2023-10-30T21:33:59Z</time>
      </trkpt>
      <trkpt lat="47.66356" lon="-2.5948">
        <ele>96</ele>
        <time>2023-10-30T21:35:12Z</time>
      </trkpt>
      <trkpt lat="47.66317" lon="-2.59361">
        <ele>97</ele>
        <time>2023-10-30T21:37:11Z</time>
      </trkpt>
      <trkpt lat="47.66269" lon="-2.59295">
        <ele>96</ele>
        <time>2023-10-30T21:38:39Z</time>
      </trkpt>
      <trkpt lat="47.66399" lon="-2.59116">
        <ele>108</ele>
        <time>2023-10-30T21:42:35Z</time>
      </trkpt>
      <trkpt lat="47.66424" lon="-2.59149">
        <ele>108</ele>
        <time>2023-10-30T21:43:20Z</time>
      </trkpt>
      <trkpt lat="47.66471" lon="-2.59058">
        <ele>114</ele>
        <time>2023-10-30T21:45:03Z</time>
      </trkpt>
      <trkpt lat="47.66532" lon="-2.58896">
        <ele>118</ele>
        <time>2023-10-30T21:47:50Z</time>
      </trkpt>
      <trkpt lat="47.66628" lon="-2.58943">
        <ele>114</ele>
        <time>2023-10-30T21:50:05Z</time>
      </trkpt>
      <trkpt lat="47.66693" lon="-2.58958">
        <ele>110</ele>
        <time>2023-10-30T21:51:32Z</time>
      </trkpt>
      <trkpt lat="47.66632" lon="-2.59339">
        <ele>99</ele>
        <time>2023-10-30T21:57:24Z</time>
      </trkpt>
      <trkpt lat="47.66649" lon="-2.5946">
        <ele>96</ele>
        <time>2023-10-30T21:59:15Z</time>
      </trkpt>
      <trkpt lat="47.66621" lon="-2.59469">
        <ele>98</ele>
        <time>2023-10-30T21:59:54Z</time>
      </trkpt>
      <trkpt lat="47.66629" lon="-2.5953">
        <ele>97</ele>
        <time>2023-10-30T22:00:50Z</time>
      </trkpt>
      <trkpt lat="47.66629" lon="-2.59641">
        <ele>96</ele>
        <time>2023-10-30T22:02:29Z</time>
      </trkpt>
      <trkpt lat="47.66638" lon="-2.59722">
        <ele>93</ele>
        <time>2023-10-30T22:03:43Z</time>
      </trkpt>
      <trkpt lat="47.66638" lon="-2.59807">
        <ele>91</ele>
        <time>2023-10-30T22:04:59Z</time>
      </trkpt>
      <trkpt lat="47.66619" lon="-2.59905">
        <ele>87</ele>
        <time>2023-10-30T22:06:31Z</time>
      </trkpt>
      <trkpt lat="47.66611" lon="-2.60001">
        <ele>89</ele>
        <time>2023-10-30T22:07:58Z</time>
      </trkpt>
      <trkpt lat="47.66595" lon="-2.60013">
        <ele>89</ele>
        <time>2023-10-30T22:08:22Z</time>
      </trkpt>
      <trkpt lat="47.66599" lon="-2.60235">
        <ele>92</ele>
        <time>2023-10-30T22:11:42Z</time>
      </trkpt>
      <trkpt lat="47.66653" lon="-2.60439">
        <ele>90</ele>
        <time>2023-10-30T22:14:59Z</time>
      </trkpt>
      <trkpt lat="47.66656" lon="-2.60526">
        <ele>91</ele>
        <time>2023-10-30T22:16:17Z</time>
      </trkpt>
      <trkpt lat="47.66672" lon="-2.60698">
        <ele>97</ele>
        <time>2023-10-30T22:18:53Z</time>
      </trkpt>
      <trkpt lat="47.66696" lon="-2.607">
        <ele>96</ele>
        <time>2023-10-30T22:19:25Z</time>
      </trkpt>
      <trkpt lat="47.66736" lon="-2.60824">
        <ele>95</ele>
        <time>2023-10-30T22:21:29Z</time>
      </trkpt>
      <trkpt lat="47.66834" lon="-2.6107">
        <ele>86</ele>
        <time>2023-10-30T22:25:45Z</time>
      </trkpt>
      <trkpt lat="47.66834" lon="-2.6111">
        <ele>88</ele>
        <time>2023-10-30T22:26:21Z</time>
      </trkpt>
      <trkpt lat="47.66909" lon="-2.61197">
        <ele>83</ele>
        <time>2023-10-30T22:28:28Z</time>
      </trkpt>
      <trkpt lat="47.66927" lon="-2.61288">
        <ele>83</ele>
        <time>2023-10-30T22:29:54Z</time>
      </trkpt>
      <trkpt lat="47.66973" lon="-2.61479">
        <ele>83</ele>
        <time>2023-10-30T22:32:56Z</time>
      </trkpt>
      <trkpt lat="47.66914" lon="-2.61494">
        <ele>84</ele>
        <time>2023-10-30T22:34:16Z</time>
      </trkpt>
      <trkpt lat="47.67073" lon="-2.61902">
        <ele>94</ele>
        <time>2023-10-30T22:41:19Z</time>
      </trkpt>
      <trkpt lat="47.67122" lon="-2.62067">
        <ele>99</ele>
        <time>2023-10-30T22:44:01Z</time>
      </trkpt>
      <trkpt lat="47.67157" lon="-2.62214">
        <ele>90</ele>
        <time>2023-10-30T22:46:22Z</time>
      </trkpt>
      <trkpt lat="47.67232" lon="-2.62371">
        <ele>86</ele>
        <time>2023-10-30T22:49:14Z</time>
      </trkpt>
      <trkpt lat="47.67238" lon="-2.62485">
        <ele>85</ele>
        <time>2023-10-30T22:50:57Z</time>
      </trkpt>
      <trkpt lat="47.67216" lon="-2.6263">
        <ele>88</ele>
        <time>2023-10-30T22:53:11Z</time>
      </trkpt>
      <trkpt lat="47.67219" lon="-2.62753">
        <ele>87</ele>
        <time>2023-10-30T22:55:01Z</time>
      </trkpt>
      <trkpt lat="47.6728" lon="-2.62909">
        <ele>79</ele>
        <time>2023-10-30T22:57:43Z</time>
      </trkpt>
      <trkpt lat="47.67282" lon="-2.63026">
        <ele>76</ele>
        <time>2023-10-30T22:59:29Z</time>
      </trkpt>
      <trkpt lat="47.67226" lon="-2.63124">
        <ele>76</ele>
        <time>2023-10-30T23:01:24Z</time>
      </trkpt>
      <trkpt lat="47.67258" lon="-2.63202">
        <ele>71</ele>
        <time>2023-10-30T23:02:46Z</time>
      </trkpt>
      <trkpt lat="47.67297" lon="-2.63158">
        <ele>73</ele>
        <time>2023-10-30T23:03:52Z</time>
      </trkpt>
      <trkpt lat="47.67291" lon="-2.6318">
        <ele>73</ele>
        <time>2023-10-30T23:04:13Z</time>
      </trkpt>
      <trkpt lat="47.67293" lon="-2.63237">
        <ele>73</ele>
        <time>2023-10-30T23:05:04Z</time>
      </trkpt>
      <trkpt lat="47.67312" lon="-2.63271">
        <ele>74</ele>
        <time>2023-10-30T23:05:44Z</time>
      </trkpt>
      <trkpt lat="47.67355" lon="-2.63303">
        <ele>74</ele>
        <time>2023-10-30T23:06:48Z</time>
      </trkpt>
      <trkpt lat="47.67382" lon="-2.63319">
        <ele>73</ele>
        <time>2023-10-30T23:07:27Z</time>
      </trkpt>
      <trkpt lat="47.6741" lon="-2.63328">
        <ele>73</ele>
        <time>2023-10-30T23:08:05Z</time>
      </trkpt>
      <trkpt lat="47.67427" lon="-2.63367">
        <ele>72</ele>
        <time>2023-10-30T23:08:47Z</time>
      </trkpt>
      <trkpt lat="47.67406" lon="-2.63451">
        <ele>72</ele>
        <time>2023-10-30T23:10:07Z</time>
      </trkpt>
      <trkpt lat="47.67385" lon="-2.63473">
        <ele>73</ele>
        <time>2023-10-30T23:10:42Z</time>
      </trkpt>
      <trkpt lat="47.67314" lon="-2.63433">
        <ele>71</ele>
        <time>2023-10-30T23:12:23Z</time>
      </trkpt>
      <trkpt lat="47.67254" lon="-2.63417">
        <ele>71</ele>
        <time>2023-10-30T23:13:44Z</time>
      </trkpt>
      <trkpt lat="47.67044" lon="-2.63376">
        <ele>76</ele>
        <time>2023-10-30T23:18:27Z</time>
      </trkpt>
      <trkpt lat="47.6708" lon="-2.63493">
        <ele>89</ele>
        <time>2023-10-30T23:20:23Z</time>
      </trkpt>
      <trkpt lat="47.67262" lon="-2.63579">
        <ele>95</ele>
        <time>2023-10-30T23:24:37Z</time>
      </trkpt>
      <trkpt lat="47.67314" lon="-2.636">
        <ele>96</ele>
        <time>2023-10-30T23:25:49Z</time>
      </trkpt>
      <trkpt lat="47.67367" lon="-2.63625">
        <ele>97</ele>
        <time>2023-10-30T23:27:04Z</time>
      </trkpt>
      <trkpt lat="47.67415" lon="-2.63654">
        <ele>100</ele>
        <time>2023-10-30T23:28:13Z</time>
      </trkpt>
      <trkpt lat="47.67518" lon="-2.63788">
        <ele>102</ele>
        <time>2023-10-30T23:31:15Z</time>
      </trkpt>
      <trkpt lat="47.67566" lon="-2.63891">
        <ele>101</ele>
        <time>2023-10-30T23:33:08Z</time>
      </trkpt>
      <trkpt lat="47.67464" lon="-2.64001">
        <ele>109</ele>
        <time>2023-10-30T23:35:56Z</time>
      </trkpt>
      <trkpt lat="47.67382" lon="-2.6407">
        <ele>108</ele>
        <time>2023-10-30T23:38:02Z</time>
      </trkpt>
      <trkpt lat="47.6717" lon="-2.64302">
        <ele>91</ele>
        <time>2023-10-30T23:43:53Z</time>
      </trkpt>
      <trkpt lat="47.67196" lon="-2.64402">
        <ele>85</ele>
        <time>2023-10-30T23:45:30Z</time>
      </trkpt>
      <trkpt lat="47.67216" lon="-2.64468">
        <ele>82</ele>
        <time>2023-10-30T23:46:35Z</time>
      </trkpt>
      <trkpt lat="47.67224" lon="-2.64582">
        <ele>74</ele>
        <time>2023-10-30T23:48:18Z</time>
      </trkpt>
      <trkpt lat="47.67157" lon="-2.64654">
        <ele>66</ele>
        <time>2023-10-30T23:50:08Z</time>
      </trkpt>
      <trkpt lat="47.67102" lon="-2.64657">
        <ele>59</ele>
        <time>2023-10-30T23:51:22Z</time>
      </trkpt>
      <trkpt lat="47.6704" lon="-2.64688">
        <ele>53</ele>
        <time>2023-10-30T23:52:49Z</time>
      </trkpt>
      <trkpt lat="47.66988" lon="-2.6473">
        <ele>51</ele>
        <time>2023-10-30T23:54:08Z</time>
      </trkpt>
      <trkpt lat="47.66986" lon="-2.64773">
        <ele>50</ele>
        <time>2023-10-30T23:54:47Z</time>
      </trkpt>
      <trkpt lat="47.67022" lon="-2.64836">
        <ele>49</ele>
        <time>2023-10-30T23:56:01Z</time>
      </trkpt>
      <trkpt lat="47.67034" lon="-2.64877">
        <ele>49</ele>
        <time>2023-10-30T23:56:41Z</time>
      </trkpt>
    </trkseg>
  </trk>
</gpx>